sensor_id;sensor_type;location;lat;lon;timestamp;pressure;altitude;pressure_sealevel;temperature;humidity
75513;BME280;64090;49.770;18.760;2022-12-07T00:00:08;97177.64;;;1.63;91.07
75513;BME280;64090;49.770;18.760;2022-12-07T00:03:31;97173.77;;;1.66;91.01
75513;BME280;64090;49.770;18.760;2022-12-07T00:06:37;97169.61;;;1.67;90.88
75513;BME280;64090;49.770;18.760;2022-12-07T00:09:40;97167.16;;;1.68;90.70
75513;BME280;64090;49.770;18.760;2022-12-07T00:12:44;97167.45;;;1.69;90.70
75513;BME280;64090;49.770;18.760;2022-12-07T00:15:47;97168.02;;;1.72;90.59
75513;BME280;64090;49.770;18.760;2022-12-07T00:18:49;97167.25;;;1.75;90.39
75513;BME280;64090;49.770;18.760;2022-12-07T00:21:52;97169.90;;;1.78;90.30
75513;BME280;64090;49.770;18.760;2022-12-07T00:24:55;97168.63;;;1.80;90.52
75513;BME280;64090;49.770;18.760;2022-12-07T00:27:58;97171.38;;;1.84;90.18
75513;BME280;64090;49.770;18.760;2022-12-07T00:31:11;97165.28;;;1.87;90.15
75513;BME280;64090;49.770;18.760;2022-12-07T00:34:18;97168.90;;;1.87;90.16
75513;BME280;64090;49.770;18.760;2022-12-07T00:37:21;97168.04;;;1.90;90.10
75513;BME280;64090;49.770;18.760;2022-12-07T00:40:24;97165.52;;;1.93;90.04
75513;BME280;64090;49.770;18.760;2022-12-07T00:43:27;97165.27;;;1.95;90.00
75513;BME280;64090;49.770;18.760;2022-12-07T00:46:30;97159.09;;;2.00;90.09
75513;BME280;64090;49.770;18.760;2022-12-07T00:49:33;97160.55;;;2.05;89.89
75513;BME280;64090;49.770;18.760;2022-12-07T00:52:36;97158.85;;;2.09;89.97
75513;BME280;64090;49.770;18.760;2022-12-07T00:55:38;97156.16;;;2.13;89.64
75513;BME280;64090;49.770;18.760;2022-12-07T00:58:41;97155.27;;;2.11;89.42
75513;BME280;64090;49.770;18.760;2022-12-07T01:01:44;97154.79;;;2.11;89.70
75513;BME280;64090;49.770;18.760;2022-12-07T01:04:47;97155.20;;;2.12;89.30
75513;BME280;64090;49.770;18.760;2022-12-07T01:07:50;97152.45;;;2.12;89.36
75513;BME280;64090;49.770;18.760;2022-12-07T01:11:05;97151.99;;;2.13;89.42
75513;BME280;64090;49.770;18.760;2022-12-07T01:14:08;97151.48;;;2.11;89.34
75513;BME280;64090;49.770;18.760;2022-12-07T01:17:11;97151.02;;;2.10;89.72
75513;BME280;64090;49.770;18.760;2022-12-07T01:20:14;97148.17;;;2.09;89.55
75513;BME280;64090;49.770;18.760;2022-12-07T01:23:18;97148.08;;;2.10;89.38
75513;BME280;64090;49.770;18.760;2022-12-07T01:26:22;97145.41;;;2.11;89.45
75513;BME280;64090;49.770;18.760;2022-12-07T01:29:25;97144.55;;;2.12;89.57
75513;BME280;64090;49.770;18.760;2022-12-07T01:32:28;97142.00;;;2.10;89.71
75513;BME280;64090;49.770;18.760;2022-12-07T01:35:33;97143.08;;;2.11;89.68
75513;BME280;64090;49.770;18.760;2022-12-07T01:38:36;97137.19;;;2.12;89.62
75513;BME280;64090;49.770;18.760;2022-12-07T01:41:40;97133.71;;;2.12;89.63
75513;BME280;64090;49.770;18.760;2022-12-07T01:48:24;97130.14;;;2.09;89.82
75513;BME280;64090;49.770;18.760;2022-12-07T01:51:29;97128.05;;;2.06;89.99
75513;BME280;64090;49.770;18.760;2022-12-07T01:54:33;97121.89;;;2.07;89.69
75513;BME280;64090;49.770;18.760;2022-12-07T01:57:40;97127.36;;;2.08;89.80
75513;BME280;64090;49.770;18.760;2022-12-07T02:00:44;97128.07;;;2.11;89.76
75513;BME280;64090;49.770;18.760;2022-12-07T02:03:46;97126.41;;;2.10;89.82
75513;BME280;64090;49.770;18.760;2022-12-07T02:06:50;97127.86;;;2.10;89.82
75513;BME280;64090;49.770;18.760;2022-12-07T02:09:54;97133.64;;;2.11;89.72
75513;BME280;64090;49.770;18.760;2022-12-07T02:13:11;97132.11;;;2.11;89.70
75513;BME280;64090;49.770;18.760;2022-12-07T02:33:16;97133.70;;;2.19;89.57
75513;BME280;64090;49.770;18.760;2022-12-07T02:36:25;97139.59;;;2.23;89.52
75513;BME280;64090;49.770;18.760;2022-12-07T02:39:36;97135.50;;;2.20;89.14
75513;BME280;64090;49.770;18.760;2022-12-07T02:42:44;97137.36;;;2.19;88.94
75513;BME280;64090;49.770;18.760;2022-12-07T02:45:51;97132.19;;;2.18;89.09
75513;BME280;64090;49.770;18.760;2022-12-07T02:48:56;97132.48;;;2.17;89.35
75513;BME280;64090;49.770;18.760;2022-12-07T02:52:02;97129.40;;;2.16;89.32
75513;BME280;64090;49.770;18.760;2022-12-07T02:55:06;97128.59;;;2.18;89.44
75513;BME280;64090;49.770;18.760;2022-12-07T02:58:23;97128.75;;;2.14;89.37
75513;BME280;64090;49.770;18.760;2022-12-07T03:08:37;97127.98;;;2.10;89.22
75513;BME280;64090;49.770;18.760;2022-12-07T03:11:48;97127.04;;;2.08;89.31
75513;BME280;64090;49.770;18.760;2022-12-07T03:14:59;97128.58;;;2.03;89.38
75513;BME280;64090;49.770;18.760;2022-12-07T03:18:05;97128.95;;;2.01;89.33
75513;BME280;64090;49.770;18.760;2022-12-07T03:21:17;97130.41;;;1.99;89.30
75513;BME280;64090;49.770;18.760;2022-12-07T03:24:30;97130.23;;;1.98;89.41
75513;BME280;64090;49.770;18.760;2022-12-07T03:27:42;97129.52;;;1.96;89.10
75513;BME280;64090;49.770;18.760;2022-12-07T03:31:03;97124.96;;;1.94;89.50
75513;BME280;64090;49.770;18.760;2022-12-07T03:34:29;97123.06;;;1.93;89.52
75513;BME280;64090;49.770;18.760;2022-12-07T03:43:54;97119.59;;;1.88;89.90
75513;BME280;64090;49.770;18.760;2022-12-07T03:47:11;97118.08;;;1.87;89.71
75513;BME280;64090;49.770;18.760;2022-12-07T03:53:54;97116.27;;;1.87;89.58
75513;BME280;64090;49.770;18.760;2022-12-07T03:57:01;97112.30;;;1.86;89.71
75513;BME280;64090;49.770;18.760;2022-12-07T04:00:06;97114.25;;;1.85;89.57
75513;BME280;64090;49.770;18.760;2022-12-07T04:03:10;97112.42;;;1.88;89.48
75513;BME280;64090;49.770;18.760;2022-12-07T04:06:14;97115.46;;;1.87;89.43
75513;BME280;64090;49.770;18.760;2022-12-07T04:09:17;97113.11;;;1.88;89.41
75513;BME280;64090;49.770;18.760;2022-12-07T04:12:21;97111.44;;;1.87;89.28
75513;BME280;64090;49.770;18.760;2022-12-07T04:15:24;97111.92;;;1.86;89.25
75513;BME280;64090;49.770;18.760;2022-12-07T04:18:27;97115.34;;;1.82;89.51
75513;BME280;64090;49.770;18.760;2022-12-07T04:21:30;97116.00;;;1.77;89.69
75513;BME280;64090;49.770;18.760;2022-12-07T04:24:33;97118.04;;;1.76;89.67
75513;BME280;64090;49.770;18.760;2022-12-07T04:27:36;97115.58;;;1.76;89.44
75513;BME280;64090;49.770;18.760;2022-12-07T04:30:39;97117.15;;;1.75;89.59
75513;BME280;64090;49.770;18.760;2022-12-07T04:33:42;97117.14;;;1.74;89.50
75513;BME280;64090;49.770;18.760;2022-12-07T04:36:46;97117.81;;;1.71;89.69
75513;BME280;64090;49.770;18.760;2022-12-07T04:39:49;97122.89;;;1.68;89.79
75513;BME280;64090;49.770;18.760;2022-12-07T04:42:51;97123.20;;;1.67;89.92
75513;BME280;64090;49.770;18.760;2022-12-07T04:45:54;97123.87;;;1.67;89.82
75513;BME280;64090;49.770;18.760;2022-12-07T04:48:58;97124.27;;;1.65;89.87
75513;BME280;64090;49.770;18.760;2022-12-07T04:52:01;97127.53;;;1.64;89.98
75513;BME280;64090;49.770;18.760;2022-12-07T04:55:04;97126.48;;;1.62;89.87
75513;BME280;64090;49.770;18.760;2022-12-07T04:58:07;97129.21;;;1.61;90.26
75513;BME280;64090;49.770;18.760;2022-12-07T05:01:10;97127.63;;;1.57;90.08
75513;BME280;64090;49.770;18.760;2022-12-07T05:04:13;97130.48;;;1.55;89.96
75513;BME280;64090;49.770;18.760;2022-12-07T05:07:16;97127.70;;;1.53;90.46
75513;BME280;64090;49.770;18.760;2022-12-07T05:10:18;97127.46;;;1.54;90.00
75513;BME280;64090;49.770;18.760;2022-12-07T05:13:21;97126.29;;;1.53;90.08
75513;BME280;64090;49.770;18.760;2022-12-07T05:16:24;97128.61;;;1.54;90.29
75513;BME280;64090;49.770;18.760;2022-12-07T05:19:27;97131.51;;;1.55;90.04
75513;BME280;64090;49.770;18.760;2022-12-07T05:22:30;97128.17;;;1.55;90.06
75513;BME280;64090;49.770;18.760;2022-12-07T05:25:32;97128.06;;;1.54;90.28
75513;BME280;64090;49.770;18.760;2022-12-07T05:28:35;97128.23;;;1.54;90.20
75513;BME280;64090;49.770;18.760;2022-12-07T05:31:38;97127.61;;;1.54;90.28
75513;BME280;64090;49.770;18.760;2022-12-07T05:34:41;97126.63;;;1.51;90.35
75513;BME280;64090;49.770;18.760;2022-12-07T05:37:45;97130.95;;;1.50;90.72
75513;BME280;64090;49.770;18.760;2022-12-07T05:40:48;97133.39;;;1.48;90.60
75513;BME280;64090;49.770;18.760;2022-12-07T05:43:51;97135.09;;;1.49;90.36
75513;BME280;64090;49.770;18.760;2022-12-07T05:46:54;97132.55;;;1.48;90.47
75513;BME280;64090;49.770;18.760;2022-12-07T05:49:57;97132.81;;;1.46;90.87
75513;BME280;64090;49.770;18.760;2022-12-07T05:53:00;97130.42;;;1.45;90.43
75513;BME280;64090;49.770;18.760;2022-12-07T05:56:03;97129.04;;;1.47;90.56
75513;BME280;64090;49.770;18.760;2022-12-07T05:59:05;97132.87;;;1.50;90.38
75513;BME280;64090;49.770;18.760;2022-12-07T06:02:27;97134.96;;;1.55;90.79
75513;BME280;64090;49.770;18.760;2022-12-07T06:05:30;97137.55;;;1.55;90.93
75513;BME280;64090;49.770;18.760;2022-12-07T06:08:34;97138.72;;;1.54;90.75
75513;BME280;64090;49.770;18.760;2022-12-07T06:11:36;97142.23;;;1.54;90.71
75513;BME280;64090;49.770;18.760;2022-12-07T06:14:58;97138.46;;;1.54;90.80
75513;BME280;64090;49.770;18.760;2022-12-07T06:18:01;97139.18;;;1.55;90.73
75513;BME280;64090;49.770;18.760;2022-12-07T06:21:04;97142.08;;;1.57;90.68
75513;BME280;64090;49.770;18.760;2022-12-07T06:24:08;97145.71;;;1.59;90.58
75513;BME280;64090;49.770;18.760;2022-12-07T06:27:11;97144.20;;;1.62;90.17
75513;BME280;64090;49.770;18.760;2022-12-07T06:30:14;97149.17;;;1.62;90.13
75513;BME280;64090;49.770;18.760;2022-12-07T06:33:17;97149.80;;;1.63;89.94
75513;BME280;64090;49.770;18.760;2022-12-07T06:36:20;97150.04;;;1.63;89.93
75513;BME280;64090;49.770;18.760;2022-12-07T06:39:29;97152.29;;;1.63;90.10
75513;BME280;64090;49.770;18.760;2022-12-07T06:42:32;97150.88;;;1.64;90.24
75513;BME280;64090;49.770;18.760;2022-12-07T06:45:34;97153.31;;;1.65;90.01
75513;BME280;64090;49.770;18.760;2022-12-07T06:48:39;97160.18;;;1.69;90.20
75513;BME280;64090;49.770;18.760;2022-12-07T06:51:43;97162.67;;;1.69;89.68
75513;BME280;64090;49.770;18.760;2022-12-07T06:54:46;97167.71;;;1.69;89.40
75513;BME280;64090;49.770;18.760;2022-12-07T06:57:49;97169.05;;;1.68;89.69
75513;BME280;64090;49.770;18.760;2022-12-07T07:00:51;97172.46;;;1.68;89.77
75513;BME280;64090;49.770;18.760;2022-12-07T07:03:54;97172.59;;;1.67;89.71
75513;BME280;64090;49.770;18.760;2022-12-07T07:06:57;97174.29;;;1.65;89.48
75513;BME280;64090;49.770;18.760;2022-12-07T07:10:02;97176.12;;;1.64;89.35
75513;BME280;64090;49.770;18.760;2022-12-07T07:13:06;97178.45;;;1.60;89.42
75513;BME280;64090;49.770;18.760;2022-12-07T07:16:09;97179.20;;;1.56;89.47
75513;BME280;64090;49.770;18.760;2022-12-07T07:19:11;97186.40;;;1.54;89.66
75513;BME280;64090;49.770;18.760;2022-12-07T07:22:15;97189.70;;;1.51;89.73
75513;BME280;64090;49.770;18.760;2022-12-07T07:25:17;97188.63;;;1.55;90.04
75513;BME280;64090;49.770;18.760;2022-12-07T07:28:21;97191.32;;;1.56;90.11
75513;BME280;64090;49.770;18.760;2022-12-07T07:31:24;97184.73;;;1.57;89.96
75513;BME280;64090;49.770;18.760;2022-12-07T07:34:27;97186.14;;;1.58;89.73
75513;BME280;64090;49.770;18.760;2022-12-07T07:37:30;97189.23;;;1.59;89.88
75513;BME280;64090;49.770;18.760;2022-12-07T07:40:33;97187.75;;;1.58;89.75
75513;BME280;64090;49.770;18.760;2022-12-07T07:43:36;97192.09;;;1.53;89.63
75513;BME280;64090;49.770;18.760;2022-12-07T07:46:39;97190.67;;;1.51;89.67
75513;BME280;64090;49.770;18.760;2022-12-07T07:49:42;97190.65;;;1.52;89.65
75513;BME280;64090;49.770;18.760;2022-12-07T07:52:50;97194.30;;;1.52;89.51
75513;BME280;64090;49.770;18.760;2022-12-07T07:55:54;97197.66;;;1.53;89.48
75513;BME280;64090;49.770;18.760;2022-12-07T07:58:57;97198.83;;;1.52;89.81
75513;BME280;64090;49.770;18.760;2022-12-07T08:01:59;97205.56;;;1.55;89.70
75513;BME280;64090;49.770;18.760;2022-12-07T08:05:02;97202.34;;;1.59;89.66
75513;BME280;64090;49.770;18.760;2022-12-07T08:08:05;97204.85;;;1.63;89.48
75513;BME280;64090;49.770;18.760;2022-12-07T08:11:09;97198.27;;;1.67;89.40
75513;BME280;64090;49.770;18.760;2022-12-07T08:14:12;97199.60;;;1.71;89.17
75513;BME280;64090;49.770;18.760;2022-12-07T08:17:15;97198.50;;;1.75;88.96
75513;BME280;64090;49.770;18.760;2022-12-07T08:20:17;97203.25;;;1.83;89.06
75513;BME280;64090;49.770;18.760;2022-12-07T08:23:20;97203.33;;;1.89;88.75
75513;BME280;64090;49.770;18.760;2022-12-07T08:26:33;97198.54;;;1.92;88.39
75513;BME280;64090;49.770;18.760;2022-12-07T08:29:36;97200.47;;;1.93;88.22
75513;BME280;64090;49.770;18.760;2022-12-07T08:32:39;97201.15;;;1.98;88.42
75513;BME280;64090;49.770;18.760;2022-12-07T08:35:42;97209.88;;;1.94;88.07
75513;BME280;64090;49.770;18.760;2022-12-07T08:38:45;97210.79;;;1.92;87.98
75513;BME280;64090;49.770;18.760;2022-12-07T08:42:07;97213.64;;;1.97;88.55
75513;BME280;64090;49.770;18.760;2022-12-07T08:45:12;97213.70;;;2.06;88.39
75513;BME280;64090;49.770;18.760;2022-12-07T08:48:15;97213.05;;;2.12;88.04
75513;BME280;64090;49.770;18.760;2022-12-07T08:51:21;97211.86;;;2.17;87.97
75513;BME280;64090;49.770;18.760;2022-12-07T08:54:25;97212.65;;;2.16;87.39
75513;BME280;64090;49.770;18.760;2022-12-07T08:57:28;97209.60;;;2.18;87.91
75513;BME280;64090;49.770;18.760;2022-12-07T09:00:32;97208.11;;;2.27;87.64
75513;BME280;64090;49.770;18.760;2022-12-07T09:03:34;97208.44;;;2.32;87.49
75513;BME280;64090;49.770;18.760;2022-12-07T09:06:38;97209.61;;;2.33;86.77
75513;BME280;64090;49.770;18.760;2022-12-07T09:09:41;97202.86;;;2.35;87.10
75513;BME280;64090;49.770;18.760;2022-12-07T09:12:44;97201.27;;;2.38;86.79
75513;BME280;64090;49.770;18.760;2022-12-07T09:15:47;97201.77;;;2.47;86.71
75513;BME280;64090;49.770;18.760;2022-12-07T09:18:50;97197.84;;;2.60;86.10
75513;BME280;64090;49.770;18.760;2022-12-07T09:21:53;97196.56;;;2.74;86.19
75513;BME280;64090;49.770;18.760;2022-12-07T09:24:57;97196.27;;;2.83;85.54
75513;BME280;64090;49.770;18.760;2022-12-07T09:28:00;97191.85;;;2.90;85.68
75513;BME280;64090;49.770;18.760;2022-12-07T09:31:04;97190.03;;;2.93;85.08
75513;BME280;64090;49.770;18.760;2022-12-07T09:34:26;97189.52;;;2.85;84.78
75513;BME280;64090;49.770;18.760;2022-12-07T09:37:29;97185.54;;;2.87;85.01
75513;BME280;64090;49.770;18.760;2022-12-07T09:40:34;97180.48;;;2.86;84.54
75513;BME280;64090;49.770;18.760;2022-12-07T09:43:38;97179.56;;;2.91;84.51
75513;BME280;64090;49.770;18.760;2022-12-07T09:46:43;97179.38;;;2.99;84.29
75513;BME280;64090;49.770;18.760;2022-12-07T09:49:46;97175.73;;;3.05;84.05
75513;BME280;64090;49.770;18.760;2022-12-07T09:52:49;97173.37;;;3.13;83.81
75513;BME280;64090;49.770;18.760;2022-12-07T09:55:53;97172.36;;;3.23;83.31
75513;BME280;64090;49.770;18.760;2022-12-07T09:59:01;97167.27;;;3.31;82.57
75513;BME280;64090;49.770;18.760;2022-12-07T10:02:26;97160.67;;;3.49;82.65
75513;BME280;64090;49.770;18.760;2022-12-07T10:05:39;97159.45;;;3.64;81.73
75513;BME280;64090;49.770;18.760;2022-12-07T10:08:44;97158.21;;;3.70;80.84
75513;BME280;64090;49.770;18.760;2022-12-07T10:12:11;97152.09;;;3.81;81.41
75513;BME280;64090;49.770;18.760;2022-12-07T10:15:15;97146.89;;;3.84;79.85
75513;BME280;64090;49.770;18.760;2022-12-07T10:18:27;97146.83;;;3.90;80.17
75513;BME280;64090;49.770;18.760;2022-12-07T10:21:30;97145.52;;;4.05;79.25
75513;BME280;64090;49.770;18.760;2022-12-07T10:24:33;97139.74;;;4.17;79.15
75513;BME280;64090;49.770;18.760;2022-12-07T10:27:36;97131.96;;;4.32;78.26
75513;BME280;64090;49.770;18.760;2022-12-07T10:33:56;97126.87;;;4.44;78.84
75513;BME280;64090;49.770;18.760;2022-12-07T10:40:31;97119.71;;;4.36;78.60
75513;BME280;64090;49.770;18.760;2022-12-07T10:43:35;97113.52;;;4.28;78.37
75513;BME280;64090;49.770;18.760;2022-12-07T10:47:00;97114.13;;;4.05;77.91
75513;BME280;64090;49.770;18.760;2022-12-07T10:50:41;97111.73;;;3.81;78.09
75513;BME280;64090;49.770;18.760;2022-12-07T10:57:22;97108.52;;;3.76;78.20
75513;BME280;64090;49.770;18.760;2022-12-07T11:00:56;97112.16;;;3.84;77.78
75513;BME280;64090;49.770;18.760;2022-12-07T11:08:02;97102.63;;;4.07;78.07
75513;BME280;64090;49.770;18.760;2022-12-07T11:11:09;97105.19;;;4.13;77.93
75513;BME280;64090;49.770;18.760;2022-12-07T11:17:52;97105.80;;;3.99;75.28
75513;BME280;64090;49.770;18.760;2022-12-07T11:24:27;97112.05;;;3.59;76.45
75513;BME280;64090;49.770;18.760;2022-12-07T11:27:39;97116.33;;;3.37;78.09
75513;BME280;64090;49.770;18.760;2022-12-07T11:34:18;97106.25;;;3.25;79.64
75513;BME280;64090;49.770;18.760;2022-12-07T11:37:34;97097.92;;;3.31;80.16
75513;BME280;64090;49.770;18.760;2022-12-07T11:40:45;97092.80;;;3.48;80.17
75513;BME280;64090;49.770;18.760;2022-12-07T11:44:03;97091.30;;;3.67;80.03
75513;BME280;64090;49.770;18.760;2022-12-07T11:47:13;97086.77;;;3.82;79.24
75513;BME280;64090;49.770;18.760;2022-12-07T11:50:27;97087.60;;;3.90;78.56
75513;BME280;64090;49.770;18.760;2022-12-07T11:53:37;97085.40;;;4.00;78.30
75513;BME280;64090;49.770;18.760;2022-12-07T11:56:42;97078.81;;;3.89;77.76
75513;BME280;64090;49.770;18.760;2022-12-07T11:59:50;97074.42;;;3.77;77.77
75513;BME280;64090;49.770;18.760;2022-12-07T12:03:01;97075.61;;;3.55;77.56
75513;BME280;64090;49.770;18.760;2022-12-07T12:06:05;97074.08;;;3.43;78.06
75513;BME280;64090;49.770;18.760;2022-12-07T12:09:15;97075.86;;;3.34;78.65
75513;BME280;64090;49.770;18.760;2022-12-07T12:19:35;97082.55;;;3.18;78.05
75513;BME280;64090;49.770;18.760;2022-12-07T12:22:44;97084.16;;;3.21;77.59
75513;BME280;64090;49.770;18.760;2022-12-07T12:25:57;97081.60;;;3.22;77.70
75513;BME280;64090;49.770;18.760;2022-12-07T12:29:04;97084.71;;;3.27;78.15
75513;BME280;64090;49.770;18.760;2022-12-07T12:32:21;97083.17;;;3.27;78.37
75513;BME280;64090;49.770;18.760;2022-12-07T12:35:32;97080.71;;;3.39;77.94
75513;BME280;64090;49.770;18.760;2022-12-07T12:39:08;97091.02;;;3.45;77.34
75513;BME280;64090;49.770;18.760;2022-12-07T12:42:19;97091.00;;;3.47;77.17
75513;BME280;64090;49.770;18.760;2022-12-07T12:48:29;97092.31;;;3.56;76.86
75513;BME280;64090;49.770;18.760;2022-12-07T12:51:40;97093.17;;;3.56;76.51
75513;BME280;64090;49.770;18.760;2022-12-07T12:55:00;97092.34;;;3.49;76.50
75513;BME280;64090;49.770;18.760;2022-12-07T13:04:59;97084.95;;;3.43;77.07
75513;BME280;64090;49.770;18.760;2022-12-07T13:08:24;97085.17;;;3.44;77.09
75513;BME280;64090;49.770;18.760;2022-12-07T13:11:41;97084.95;;;3.39;77.14
75513;BME280;64090;49.770;18.760;2022-12-07T13:14:56;97081.48;;;3.34;77.58
75513;BME280;64090;49.770;18.760;2022-12-07T13:18:02;97079.44;;;3.41;77.38
75513;BME280;64090;49.770;18.760;2022-12-07T13:24:12;97075.62;;;3.31;77.65
75513;BME280;64090;49.770;18.760;2022-12-07T13:27:17;97077.69;;;3.27;77.56
75513;BME280;64090;49.770;18.760;2022-12-07T13:30:21;97080.67;;;3.32;77.75
75513;BME280;64090;49.770;18.760;2022-12-07T13:33:27;97081.27;;;3.34;77.93
75513;BME280;64090;49.770;18.760;2022-12-07T13:36:48;97091.52;;;3.32;77.49
75513;BME280;64090;49.770;18.760;2022-12-07T13:39:55;97094.98;;;3.28;77.35
75513;BME280;64090;49.770;18.760;2022-12-07T13:43:03;97098.16;;;3.15;77.04
75513;BME280;64090;49.770;18.760;2022-12-07T13:46:07;97105.11;;;3.11;77.59
75513;BME280;64090;49.770;18.760;2022-12-07T13:49:20;97105.86;;;3.01;77.73
75513;BME280;64090;49.770;18.760;2022-12-07T13:52:25;97109.17;;;2.95;78.07
75513;BME280;64090;49.770;18.760;2022-12-07T13:55:29;97112.69;;;2.87;78.29
75513;BME280;64090;49.770;18.760;2022-12-07T13:58:33;97113.91;;;2.87;78.31
75513;BME280;64090;49.770;18.760;2022-12-07T14:01:36;97114.81;;;2.84;78.19
75513;BME280;64090;49.770;18.760;2022-12-07T14:04:38;97115.02;;;2.78;78.27
75513;BME280;64090;49.770;18.760;2022-12-07T14:08:04;97113.61;;;2.74;78.30
75513;BME280;64090;49.770;18.760;2022-12-07T14:11:12;97111.57;;;2.69;78.63
75513;BME280;64090;49.770;18.760;2022-12-07T14:14:30;97110.31;;;2.63;78.58
75513;BME280;64090;49.770;18.760;2022-12-07T14:17:53;97109.52;;;2.57;79.02
75513;BME280;64090;49.770;18.760;2022-12-07T14:24:17;97106.53;;;2.50;79.04
75513;BME280;64090;49.770;18.760;2022-12-07T14:27:22;97110.54;;;2.47;79.25
75513;BME280;64090;49.770;18.760;2022-12-07T14:30:32;97113.58;;;2.40;79.41
75513;BME280;64090;49.770;18.760;2022-12-07T14:33:37;97111.05;;;2.34;79.59
75513;BME280;64090;49.770;18.760;2022-12-07T14:36:40;97107.45;;;2.30;79.77
75513;BME280;64090;49.770;18.760;2022-12-07T14:39:43;97115.95;;;2.28;79.98
75513;BME280;64090;49.770;18.760;2022-12-07T14:42:48;97117.98;;;2.23;79.96
75513;BME280;64090;49.770;18.760;2022-12-07T14:45:52;97121.73;;;2.18;80.11
75513;BME280;64090;49.770;18.760;2022-12-07T14:48:55;97124.02;;;2.16;80.29
75513;BME280;64090;49.770;18.760;2022-12-07T14:52:24;97116.80;;;2.13;80.36
75513;BME280;64090;49.770;18.760;2022-12-07T14:55:49;97115.51;;;2.09;80.57
75513;BME280;64090;49.770;18.760;2022-12-07T14:58:52;97117.27;;;2.07;80.45
75513;BME280;64090;49.770;18.760;2022-12-07T15:01:54;97121.52;;;2.06;80.47
75513;BME280;64090;49.770;18.760;2022-12-07T15:04:57;97125.30;;;2.08;80.31
75513;BME280;64090;49.770;18.760;2022-12-07T15:08:00;97130.83;;;2.10;79.88
75513;BME280;64090;49.770;18.760;2022-12-07T15:11:04;97128.66;;;2.07;79.67
75513;BME280;64090;49.770;18.760;2022-12-07T15:14:07;97129.95;;;2.04;79.44
75513;BME280;64090;49.770;18.760;2022-12-07T15:17:14;97131.59;;;2.03;78.69
75513;BME280;64090;49.770;18.760;2022-12-07T15:20:31;97135.11;;;1.99;78.94
75513;BME280;64090;49.770;18.760;2022-12-07T15:23:34;97132.42;;;1.98;78.99
75513;BME280;64090;49.770;18.760;2022-12-07T15:26:38;97131.84;;;1.94;78.37
75513;BME280;64090;49.770;18.760;2022-12-07T15:29:41;97133.79;;;1.94;78.18
75513;BME280;64090;49.770;18.760;2022-12-07T15:32:44;97133.55;;;1.88;78.30
75513;BME280;64090;49.770;18.760;2022-12-07T15:35:47;97130.83;;;1.85;78.57
75513;BME280;64090;49.770;18.760;2022-12-07T15:38:50;97138.95;;;1.85;78.40
75513;BME280;64090;49.770;18.760;2022-12-07T15:42:13;97146.36;;;1.84;78.67
75513;BME280;64090;49.770;18.760;2022-12-07T15:45:16;97152.09;;;1.81;78.28
75513;BME280;64090;49.770;18.760;2022-12-07T15:48:19;97148.65;;;1.81;78.52
75513;BME280;64090;49.770;18.760;2022-12-07T15:51:31;97153.86;;;1.80;78.66
75513;BME280;64090;49.770;18.760;2022-12-07T15:54:34;97151.77;;;1.79;78.99
75513;BME280;64090;49.770;18.760;2022-12-07T15:57:38;97150.02;;;1.78;78.97
75513;BME280;64090;49.770;18.760;2022-12-07T16:00:41;97157.40;;;1.77;79.22
75513;BME280;64090;49.770;18.760;2022-12-07T16:03:44;97154.85;;;1.75;79.30
75513;BME280;64090;49.770;18.760;2022-12-07T16:06:47;97160.17;;;1.79;79.28
75513;BME280;64090;49.770;18.760;2022-12-07T16:09:50;97162.90;;;1.78;79.45
75513;BME280;64090;49.770;18.760;2022-12-07T16:12:53;97160.73;;;1.82;79.17
75513;BME280;64090;49.770;18.760;2022-12-07T16:15:56;97159.82;;;1.81;79.10
75513;BME280;64090;49.770;18.760;2022-12-07T16:18:58;97158.51;;;1.78;79.31
75513;BME280;64090;49.770;18.760;2022-12-07T16:22:02;97163.65;;;1.74;79.56
75513;BME280;64090;49.770;18.760;2022-12-07T16:25:05;97155.70;;;1.72;79.62
75513;BME280;64090;49.770;18.760;2022-12-07T16:28:08;97155.72;;;1.68;79.81
75513;BME280;64090;49.770;18.760;2022-12-07T16:31:14;97155.77;;;1.61;79.93
75513;BME280;64090;49.770;18.760;2022-12-07T16:34:17;97153.08;;;1.54;80.05
75513;BME280;64090;49.770;18.760;2022-12-07T16:37:20;97159.22;;;1.45;79.85
75513;BME280;64090;49.770;18.760;2022-12-07T16:40:23;97165.69;;;1.35;80.17
75513;BME280;64090;49.770;18.760;2022-12-07T16:43:26;97164.89;;;1.26;80.50
75513;BME280;64090;49.770;18.760;2022-12-07T16:46:29;97166.04;;;1.17;81.17
75513;BME280;64090;49.770;18.760;2022-12-07T16:49:32;97164.17;;;1.10;80.78
75513;BME280;64090;49.770;18.760;2022-12-07T16:52:35;97166.27;;;1.03;80.54
75513;BME280;64090;49.770;18.760;2022-12-07T16:55:39;97163.30;;;0.96;80.66
75513;BME280;64090;49.770;18.760;2022-12-07T16:58:43;97163.36;;;0.87;81.11
75513;BME280;64090;49.770;18.760;2022-12-07T17:01:46;97167.17;;;0.80;81.49
75513;BME280;64090;49.770;18.760;2022-12-07T17:04:50;97169.52;;;0.78;82.10
75513;BME280;64090;49.770;18.760;2022-12-07T17:07:53;97167.63;;;0.80;81.76
75513;BME280;64090;49.770;18.760;2022-12-07T17:10:56;97170.89;;;0.85;82.12
75513;BME280;64090;49.770;18.760;2022-12-07T17:13:59;97166.65;;;0.89;82.04
75513;BME280;64090;49.770;18.760;2022-12-07T17:17:21;97163.67;;;0.93;82.20
75513;BME280;64090;49.770;18.760;2022-12-07T17:20:25;97162.55;;;0.97;81.79
75513;BME280;64090;49.770;18.760;2022-12-07T17:23:29;97168.33;;;1.01;81.72
75513;BME280;64090;49.770;18.760;2022-12-07T17:26:33;97168.47;;;1.05;81.85
75513;BME280;64090;49.770;18.760;2022-12-07T17:29:37;97167.92;;;1.12;82.30
75513;BME280;64090;49.770;18.760;2022-12-07T17:32:40;97172.15;;;1.17;82.37
75513;BME280;64090;49.770;18.760;2022-12-07T17:35:43;97176.05;;;1.18;82.32
75513;BME280;64090;49.770;18.760;2022-12-07T17:38:46;97174.64;;;1.15;82.28
75513;BME280;64090;49.770;18.760;2022-12-07T17:41:52;97171.56;;;1.13;81.85
75513;BME280;64090;49.770;18.760;2022-12-07T17:45:13;97162.76;;;1.08;82.23
75513;BME280;64090;49.770;18.760;2022-12-07T17:48:16;97159.72;;;1.00;82.21
75513;BME280;64090;49.770;18.760;2022-12-07T17:51:19;97156.13;;;0.91;82.36